createdAt,value
2022-11-24T00:01:18.118Z,16.83
2022-11-24T00:03:51.818Z,15.45
2022-11-24T00:06:18.931Z,16.15
2022-11-24T00:08:46.779Z,15.45
2022-11-24T00:11:18.015Z,14.38
2022-11-24T00:13:45.773Z,14.60
2022-11-24T00:16:20.797Z,14.77
2022-11-24T00:18:50.442Z,14.27
2022-11-24T00:21:19.145Z,16.55
2022-11-24T00:23:48.770Z,16.55
2022-11-24T00:26:22.212Z,15.60
2022-11-24T00:28:53.951Z,15.93
2022-11-24T00:31:25.184Z,14.73
2022-11-24T00:33:57.282Z,16.00
2022-11-24T00:36:27.438Z,16.17
2022-11-24T00:39:01.161Z,16.92
2022-11-24T00:41:29.800Z,14.98
2022-11-24T00:43:57.619Z,15.35
2022-11-24T00:46:26.175Z,15.45
2022-11-24T00:48:54.017Z,16.08
2022-11-24T00:51:27.092Z,14.80
2022-11-24T00:53:56.397Z,13.50
2022-11-24T00:56:24.626Z,16.67
2022-11-24T00:58:52.232Z,14.02
2022-11-24T01:01:24.491Z,15.45
2022-11-24T01:03:52.590Z,16.83
2022-11-24T01:06:26.103Z,16.88
2022-11-24T01:08:53.350Z,17.45
2022-11-24T01:11:28.139Z,18.08
2022-11-24T01:13:59.340Z,15.00
2022-11-24T01:16:33.960Z,16.25
2022-11-24T01:19:03.813Z,15.32
2022-11-24T01:21:30.864Z,16.80
2022-11-24T01:23:57.913Z,17.70
2022-11-24T01:26:24.947Z,18.95
2022-11-24T01:28:57.249Z,16.65
2022-11-24T01:31:26.544Z,14.80
2022-11-24T01:33:54.641Z,15.88
2022-11-24T01:36:22.908Z,14.82
2022-11-24T01:38:50.296Z,16.00
2022-11-24T01:41:20.878Z,17.85
2022-11-24T01:43:48.719Z,18.42
2022-11-24T01:46:31.634Z,19.02
2022-11-24T01:49:22.733Z,16.52
2022-11-24T01:51:58.436Z,19.17
2022-11-24T01:54:31.943Z,17.10
2022-11-24T01:57:08.097Z,16.92
2022-11-24T01:59:35.238Z,16.58
2022-11-24T02:02:02.441Z,15.85
2022-11-24T02:04:33.311Z,14.75
2022-11-24T02:07:03.096Z,15.02
2022-11-24T02:09:56.255Z,13.88
2022-11-24T02:12:26.876Z,15.15
2022-11-24T02:14:55.724Z,14.13
2022-11-24T02:17:24.223Z,16.10
2022-11-24T02:20:08.159Z,17.52
2022-11-24T02:22:41.698Z,17.02
2022-11-24T02:25:28.201Z,17.35
2022-11-24T02:27:58.363Z,17.15
2022-11-24T02:30:25.498Z,16.15
2022-11-24T02:32:52.810Z,15.80
2022-11-24T02:35:20.432Z,17.35
2022-11-24T02:37:47.594Z,18.20
2022-11-24T02:40:25.427Z,19.30
2022-11-24T02:43:05.350Z,20.83
2022-11-24T02:45:32.489Z,18.75
2022-11-24T02:47:59.649Z,22.38
2022-11-24T02:50:26.775Z,21.30
2022-11-24T02:52:53.792Z,19.70
2022-11-24T02:55:20.817Z,19.80
2022-11-24T02:57:47.964Z,19.98
2022-11-24T03:00:17.643Z,20.27
2022-11-24T03:02:44.800Z,20.38
2022-11-24T03:05:12.646Z,20.02
2022-11-24T03:07:39.763Z,22.17
2022-11-24T03:10:07.623Z,20.08
2022-11-24T03:12:34.774Z,19.35
2022-11-24T03:15:03.339Z,19.10
2022-11-24T03:17:30.826Z,19.65
2022-11-24T03:20:02.989Z,19.25
2022-11-24T03:22:31.895Z,19.80
2022-11-24T03:24:59.351Z,18.70
2022-11-24T03:27:26.404Z,18.67
2022-11-24T03:29:53.473Z,18.67
2022-11-24T03:32:20.969Z,18.10
2022-11-24T03:34:48.179Z,19.63
2022-11-24T03:37:15.536Z,17.25
2022-11-24T03:39:42.661Z,18.95
2022-11-24T03:42:09.634Z,15.30
2022-11-24T03:44:36.881Z,15.82
2022-11-24T03:47:03.971Z,19.42
2022-11-24T03:49:31.101Z,19.05
2022-11-24T03:52:00.611Z,18.52
2022-11-24T03:54:29.667Z,17.23
2022-11-24T03:56:56.889Z,17.67
2022-11-24T03:59:23.972Z,16.42
2022-11-24T04:01:51.582Z,17.02
2022-11-24T04:04:18.756Z,17.45
2022-11-24T04:06:46.114Z,18.17
2022-11-24T04:09:13.159Z,18.67
2022-11-24T04:11:58.868Z,20.92
2022-11-24T04:14:26.007Z,17.63
2022-11-24T04:16:52.999Z,16.85
2022-11-24T04:19:19.929Z,19.23
2022-11-24T04:21:46.954Z,17.48
2022-11-24T04:24:14.796Z,18.30
2022-11-24T04:26:41.851Z,18.10
2022-11-24T04:29:10.051Z,18.60
2022-11-24T04:31:37.556Z,19.10
2022-11-24T04:34:04.845Z,18.42
2022-11-24T04:36:31.898Z,18.30
2022-11-24T04:39:19.405Z,18.15
2022-11-24T04:41:48.323Z,16.27
2022-11-24T04:44:15.445Z,19.33
2022-11-24T04:46:42.519Z,18.80
2022-11-24T04:49:12.395Z,17.50
2022-11-24T04:51:40.613Z,19.90
2022-11-24T04:54:10.427Z,19.52
2022-11-24T04:56:37.484Z,19.52
2022-11-24T04:59:08.470Z,18.38
2022-11-24T05:01:36.658Z,18.67
2022-11-24T05:04:04.120Z,17.95
2022-11-24T05:06:33.204Z,18.33
2022-11-24T05:09:01.058Z,17.92
2022-11-24T05:11:28.819Z,19.67
2022-11-24T05:13:56.243Z,16.30
2022-11-24T05:16:23.355Z,17.50
2022-11-24T05:18:50.484Z,17.73
2022-11-24T05:21:17.649Z,17.52
2022-11-24T05:23:45.195Z,18.23
2022-11-24T05:26:12.537Z,18.10
2022-11-24T05:28:39.626Z,17.20
2022-11-24T05:31:07.096Z,17.88
2022-11-24T05:33:34.159Z,19.13
2022-11-24T05:36:04.547Z,17.23
2022-11-24T05:38:33.081Z,16.67
2022-11-24T05:41:05.594Z,16.65
2022-11-24T05:43:32.686Z,18.48
2022-11-24T05:46:02.793Z,17.55
2022-11-24T05:48:29.760Z,16.20
2022-11-24T05:50:58.758Z,18.17
2022-11-24T05:53:27.201Z,19.23
2022-11-24T05:55:54.343Z,19.38
2022-11-24T05:58:21.420Z,19.50
2022-11-24T06:00:48.663Z,17.42
2022-11-24T06:03:16.102Z,18.23
2022-11-24T06:05:47.293Z,17.52
2022-11-24T06:08:14.926Z,16.73
2022-11-24T06:10:42.033Z,16.92
2022-11-24T06:13:09.267Z,18.45
2022-11-24T06:15:37.853Z,17.70
2022-11-24T06:18:05.083Z,19.48
2022-11-24T06:20:33.030Z,17.48
2022-11-24T06:23:01.390Z,17.77
2022-11-24T06:25:31.057Z,16.77
2022-11-24T06:27:58.114Z,17.20
2022-11-24T06:30:25.912Z,18.67
2022-11-24T06:32:56.240Z,19.95
2022-11-24T06:35:23.326Z,18.25
2022-11-24T06:37:50.723Z,19.83
2022-11-24T06:40:17.966Z,16.73
2022-11-24T06:42:51.463Z,18.23
2022-11-24T06:45:19.068Z,18.20
2022-11-24T06:47:46.311Z,18.52
2022-11-24T06:50:13.442Z,17.35
2022-11-24T06:52:40.475Z,15.30
2022-11-24T06:55:08.324Z,15.43
2022-11-24T06:57:35.411Z,16.15
2022-11-24T07:00:08.022Z,17.20
2022-11-24T07:02:35.596Z,16.38
2022-11-24T07:05:02.790Z,16.42
2022-11-24T07:07:30.481Z,15.95
2022-11-24T07:10:07.626Z,14.82
2022-11-24T07:12:35.384Z,14.88
2022-11-24T07:15:02.464Z,16.10
2022-11-24T07:17:29.584Z,18.25
2022-11-24T07:19:56.739Z,17.15
2022-11-24T07:22:23.857Z,18.85
2022-11-24T07:24:50.829Z,18.27
2022-11-24T07:27:18.002Z,21.88
2022-11-24T07:29:45.099Z,18.50
2022-11-24T07:32:15.316Z,19.55
2022-11-24T07:34:42.351Z,19.15
2022-11-24T07:37:09.517Z,21.00
2022-11-24T07:39:36.587Z,21.08
2022-11-24T07:42:05.284Z,21.35
2022-11-24T07:44:35.108Z,21.77
2022-11-24T07:47:03.076Z,22.80
2022-11-24T07:49:30.240Z,21.38
2022-11-24T07:51:57.430Z,21.83
2022-11-24T07:54:24.548Z,19.25
2022-11-24T07:56:51.667Z,17.98
2022-11-24T07:59:19.045Z,16.88
2022-11-24T08:01:46.288Z,18.20
2022-11-24T08:04:13.571Z,16.92
2022-11-24T08:06:47.135Z,18.05
2022-11-24T08:09:14.626Z,16.17
2022-11-24T08:11:41.637Z,17.50
2022-11-24T08:14:08.833Z,19.45
2022-11-24T08:16:36.392Z,19.08
2022-11-24T08:19:03.515Z,18.08
2022-11-24T08:21:30.706Z,18.45
2022-11-24T08:23:58.419Z,17.90
2022-11-24T08:26:26.532Z,18.08
2022-11-24T08:28:57.620Z,17.73
2022-11-24T08:31:27.541Z,17.60
2022-11-24T08:33:56.112Z,16.38
2022-11-24T08:36:23.425Z,15.40
2022-11-24T08:38:56.543Z,17.08
2022-11-24T08:41:24.965Z,14.30
2022-11-24T08:43:53.818Z,14.98
2022-11-24T08:46:22.403Z,14.80
2022-11-24T08:48:54.443Z,14.48
2022-11-24T08:51:25.107Z,12.82
2022-11-24T08:54:01.953Z,12.43
2022-11-24T08:56:32.497Z,11.18
2022-11-24T08:59:02.650Z,14.30
2022-11-24T09:01:30.139Z,12.68
2022-11-24T09:03:57.875Z,12.82
2022-11-24T09:06:30.940Z,13.27
2022-11-24T09:09:01.914Z,12.63
2022-11-24T09:11:30.981Z,13.43
2022-11-24T09:13:58.221Z,12.52
2022-11-24T09:16:29.069Z,13.60
2022-11-24T09:19:08.207Z,13.15
2022-11-24T09:21:38.747Z,13.77
2022-11-24T09:24:11.147Z,13.30
2022-11-24T09:26:41.869Z,12.23
2022-11-24T09:29:12.626Z,13.73
2022-11-24T09:31:40.090Z,12.98
2022-11-24T09:34:11.529Z,13.45
2022-11-24T09:36:39.913Z,12.05
2022-11-24T09:39:07.371Z,12.43
2022-11-24T09:42:05.157Z,12.93
2022-11-24T09:44:54.705Z,12.15
2022-11-24T09:47:37.934Z,12.00
2022-11-24T09:50:24.687Z,12.63
2022-11-24T09:53:10.630Z,13.00
2022-11-24T09:55:50.167Z,12.40
2022-11-24T09:58:42.721Z,12.55
2022-11-24T10:01:20.792Z,12.10
2022-11-24T10:03:52.137Z,11.85
2022-11-24T10:06:44.783Z,9.73
2022-11-24T10:09:27.193Z,9.75
2022-11-24T10:12:07.110Z,8.48
2022-11-24T10:15:16.645Z,9.45
2022-11-24T10:18:21.089Z,9.48
2022-11-24T10:21:50.975Z,8.80
2022-11-24T10:24:38.712Z,9.40
2022-11-24T10:27:45.025Z,9.45
2022-11-24T10:30:21.647Z,9.50
2022-11-24T10:32:57.866Z,9.63
2022-11-24T10:36:03.976Z,10.63
2022-11-24T10:38:41.545Z,10.45
2022-11-24T10:41:18.143Z,9.07
2022-11-24T10:43:45.370Z,10.00
2022-11-24T10:46:20.271Z,9.48
2022-11-24T10:48:53.389Z,9.70
2022-11-24T10:51:48.897Z,8.60
2022-11-24T10:54:21.329Z,9.10
2022-11-24T10:56:52.239Z,10.32
2022-11-24T10:59:33.497Z,10.43
2022-11-24T11:02:01.475Z,8.40
2022-11-24T11:04:35.011Z,9.65
2022-11-24T11:07:28.694Z,9.60
2022-11-24T11:10:23.578Z,9.27
2022-11-24T11:15:30.308Z,8.63
2022-11-24T11:17:59.750Z,9.68
2022-11-24T11:20:34.483Z,9.55
2022-11-24T11:23:15.427Z,10.00
2022-11-24T11:25:43.847Z,10.45
2022-11-24T11:28:23.766Z,9.65
2022-11-24T11:31:20.653Z,9.75
2022-11-24T11:34:35.478Z,9.00
2022-11-24T11:37:04.906Z,9.77
2022-11-24T11:39:37.386Z,9.60
2022-11-24T11:43:00.859Z,10.30
2022-11-24T11:45:30.201Z,9.05
2022-11-24T11:48:42.298Z,9.65
2022-11-24T11:51:42.552Z,9.63
2022-11-24T11:54:30.832Z,8.40
2022-11-24T11:57:32.631Z,9.10
2022-11-24T12:00:18.634Z,8.45
2022-11-24T12:03:25.515Z,8.52
2022-11-24T12:06:11.423Z,9.50
2022-11-24T12:09:21.736Z,8.57
2022-11-24T12:12:20.502Z,8.05
2022-11-24T12:15:52.210Z,9.38
2022-11-24T12:18:57.567Z,8.82
2022-11-24T12:21:35.833Z,9.25
2022-11-24T12:24:33.973Z,8.30
2022-11-24T12:27:31.825Z,8.15
2022-11-24T12:30:13.864Z,9.23
2022-11-24T12:33:20.776Z,8.60
2022-11-24T12:36:04.020Z,8.90
2022-11-24T12:38:50.770Z,9.23
2022-11-24T12:42:11.281Z,8.38
2022-11-24T12:45:13.987Z,8.30
2022-11-24T12:48:13.036Z,8.40
2022-11-24T12:50:44.582Z,8.23
2022-11-24T12:53:17.765Z,9.00
2022-11-24T12:55:46.414Z,8.23
2022-11-24T12:58:41.540Z,8.93
2022-11-24T13:01:36.383Z,8.75
2022-11-24T13:06:53.666Z,9.13
2022-11-24T13:09:21.307Z,8.55
2022-11-24T13:11:51.596Z,9.05
2022-11-24T13:14:23.534Z,8.80
2022-11-24T13:17:28.746Z,9.18
2022-11-24T13:19:48.297Z,10.70
2022-11-24T13:22:24.533Z,9.20
2022-11-24T13:25:15.302Z,8.23
2022-11-24T13:27:46.217Z,7.95
2022-11-24T13:30:35.951Z,8.38
2022-11-24T13:33:16.429Z,7.57
2022-11-24T13:36:03.030Z,7.68
2022-11-24T13:38:53.621Z,8.05
2022-11-24T13:45:45.037Z,8.85
2022-11-24T13:48:22.480Z,7.60
2022-11-24T13:50:50.534Z,7.47
2022-11-24T13:53:43.940Z,7.55
2022-11-24T13:56:14.333Z,7.10
2022-11-24T13:58:56.541Z,8.73
2022-11-24T14:01:37.328Z,8.68
2022-11-24T14:04:32.265Z,8.02
2022-11-24T14:07:09.067Z,7.63
2022-11-24T14:09:46.639Z,6.45
2022-11-24T14:12:26.181Z,8.25
2022-11-24T14:14:57.584Z,7.82
2022-11-24T14:17:28.791Z,8.73
2022-11-24T14:19:58.313Z,8.07
2022-11-24T14:22:39.788Z,6.80
2022-11-24T14:25:30.755Z,6.80
2022-11-24T14:28:00.717Z,7.00
2022-11-24T14:30:28.547Z,8.30
2022-11-24T14:33:02.290Z,7.50
2022-11-24T14:35:35.720Z,6.50
2022-11-24T14:38:06.117Z,7.40
2022-11-24T14:40:55.267Z,7.50
2022-11-24T14:43:26.470Z,7.90
2022-11-24T14:46:05.185Z,7.80
2022-11-24T14:48:48.136Z,7.68
2022-11-24T14:51:22.148Z,7.97
2022-11-24T14:53:53.346Z,6.65
2022-11-24T14:56:24.505Z,6.55
2022-11-24T14:58:53.476Z,7.00
2022-11-24T15:01:27.536Z,6.85
2022-11-24T15:05:04.264Z,6.88
2022-11-24T15:07:29.322Z,7.15
2022-11-24T15:10:00.942Z,7.93
2022-11-24T15:12:42.454Z,9.40
2022-11-24T15:15:16.018Z,7.47
2022-11-24T15:18:01.086Z,6.53
2022-11-24T15:20:37.481Z,6.53
2022-11-24T15:23:34.252Z,7.93
2022-11-24T15:26:01.795Z,7.22
2022-11-24T15:28:31.226Z,6.85
2022-11-24T15:31:10.067Z,8.48
2022-11-24T15:33:38.422Z,9.07
2022-11-24T15:36:06.500Z,8.27
2022-11-24T15:38:35.391Z,10.13
2022-11-24T15:41:05.792Z,9.73
2022-11-24T15:43:41.282Z,9.40
2022-11-24T15:46:10.082Z,10.70
2022-11-24T15:48:38.051Z,9.60
2022-11-24T15:51:15.236Z,8.57
2022-11-24T15:53:52.472Z,7.45
2022-11-24T15:56:34.226Z,8.95
2022-11-24T15:59:03.251Z,9.30
2022-11-24T16:01:34.654Z,10.73
2022-11-24T16:04:03.000Z,10.60
2022-11-24T16:06:30.861Z,9.43
2022-11-24T16:09:54.052Z,9.60
2022-11-24T16:12:21.592Z,10.35
2022-11-24T16:14:49.211Z,9.75
2022-11-24T16:17:16.688Z,10.90
2022-11-24T16:19:44.382Z,8.48
2022-11-24T16:22:11.870Z,10.88
2022-11-24T16:24:39.792Z,12.52
2022-11-24T16:27:07.171Z,12.00
2022-11-24T16:29:38.406Z,16.65
2022-11-24T16:32:06.957Z,14.68
2022-11-24T16:34:34.877Z,15.02
2022-11-24T16:37:02.491Z,17.13
2022-11-24T16:39:30.327Z,20.77
2022-11-24T16:41:57.877Z,18.70
2022-11-24T16:44:25.387Z,23.33
2022-11-24T16:46:53.958Z,22.85
2022-11-24T16:49:21.359Z,22.10
2022-11-24T16:51:48.938Z,24.02
2022-11-24T16:54:16.377Z,26.73
2022-11-24T16:56:45.087Z,21.60
2022-11-24T16:59:13.358Z,22.48
2022-11-24T17:01:41.234Z,25.42
2022-11-24T17:04:12.628Z,21.92
2022-11-24T17:06:40.806Z,22.58
2022-11-24T17:09:08.416Z,23.55
2022-11-24T17:11:35.903Z,23.60
2022-11-24T17:14:03.936Z,26.52
2022-11-24T17:16:32.048Z,26.65
2022-11-24T17:19:00.197Z,26.88
2022-11-24T17:21:28.959Z,26.52
2022-11-24T17:23:59.877Z,24.00
2022-11-24T17:26:28.239Z,25.02
2022-11-24T17:28:56.298Z,25.17
2022-11-24T17:31:29.919Z,23.88
2022-11-24T17:33:59.793Z,22.35
2022-11-24T17:36:28.737Z,20.63
2022-11-24T17:38:56.522Z,21.83
2022-11-24T17:41:24.079Z,22.00
2022-11-24T17:43:53.476Z,23.30
2022-11-24T17:46:21.540Z,22.60
2022-11-24T17:48:49.774Z,21.25
2022-11-24T17:51:21.242Z,21.23
2022-11-24T17:53:51.202Z,22.13
2022-11-24T17:56:23.750Z,26.23
2022-11-24T17:58:57.477Z,31.60
2022-11-24T18:01:26.832Z,34.60
2022-11-24T18:03:54.888Z,47.97
2022-11-24T18:06:26.207Z,43.33
2022-11-24T18:08:56.047Z,32.88
2022-11-24T18:11:31.428Z,30.70
2022-11-24T18:14:03.611Z,24.42
2022-11-24T18:16:34.519Z,23.80
2022-11-24T18:19:09.916Z,24.63
2022-11-24T18:21:40.315Z,24.17
2022-11-24T18:24:10.251Z,23.90
2022-11-24T18:26:39.858Z,22.60
2022-11-24T18:29:09.847Z,25.45
2022-11-24T18:31:39.270Z,25.60
2022-11-24T18:34:07.640Z,24.20
2022-11-24T18:36:35.307Z,25.15
2022-11-24T18:39:06.293Z,25.45
2022-11-24T18:41:34.288Z,23.00
2022-11-24T18:44:08.028Z,24.77
2022-11-24T18:46:38.428Z,35.83
2022-11-24T18:49:07.498Z,26.55
2022-11-24T18:51:35.072Z,32.33
2022-11-24T18:54:04.191Z,30.17
2022-11-24T18:56:31.876Z,29.23
2022-11-24T18:58:59.940Z,36.75
2022-11-24T19:01:29.248Z,38.05
2022-11-24T19:04:00.674Z,41.72
2022-11-24T19:06:35.319Z,41.15
2022-11-24T19:09:07.848Z,44.13
2022-11-24T19:11:39.245Z,50.97
2022-11-24T19:14:11.342Z,40.20
2022-11-24T19:16:39.717Z,46.35
2022-11-24T19:19:12.780Z,49.28
2022-11-24T19:21:41.370Z,39.05
2022-11-24T19:24:11.366Z,39.58
2022-11-24T19:26:39.830Z,45.65
2022-11-24T19:29:10.878Z,44.03
2022-11-24T19:31:44.060Z,47.70
2022-11-24T19:34:11.642Z,44.90
2022-11-24T19:36:40.671Z,48.42
2022-11-24T19:39:16.195Z,45.17
2022-11-24T19:41:44.153Z,45.95
2022-11-24T19:44:13.164Z,43.58
2022-11-24T19:46:41.085Z,44.58
2022-11-24T19:49:10.014Z,43.33
2022-11-24T19:51:40.038Z,43.03
2022-11-24T19:54:14.736Z,42.22
2022-11-24T19:56:42.307Z,44.53
2022-11-24T19:59:10.226Z,51.78
2022-11-24T20:01:40.948Z,50.15
2022-11-24T20:04:13.790Z,49.97
2022-11-24T20:06:46.017Z,57.53
2022-11-24T20:09:18.904Z,53.58
2022-11-24T20:11:48.752Z,54.92
2022-11-24T20:14:19.471Z,50.35
2022-11-24T20:16:48.077Z,46.08
2022-11-24T20:19:18.107Z,46.80
2022-11-24T20:21:47.950Z,43.00
2022-11-24T20:24:26.072Z,40.20
2022-11-24T20:26:59.347Z,38.42
2022-11-24T20:29:29.745Z,37.45
2022-11-24T20:31:57.410Z,35.97
2022-11-24T20:34:26.626Z,34.92
2022-11-24T20:36:54.228Z,34.83
2022-11-24T20:39:26.653Z,35.40
2022-11-24T20:41:55.450Z,36.20
2022-11-24T20:44:25.068Z,33.08
2022-11-24T20:46:57.185Z,30.52
2022-11-24T20:49:25.997Z,35.08
2022-11-24T20:51:57.591Z,34.70
2022-11-24T20:54:25.305Z,33.83
2022-11-24T20:56:52.886Z,35.15
2022-11-24T20:59:23.888Z,40.45
2022-11-24T21:01:55.529Z,43.20
2022-11-24T21:04:26.402Z,42.88
2022-11-24T21:06:54.918Z,40.95
2022-11-24T21:09:23.047Z,43.15
2022-11-24T21:11:50.806Z,41.45
2022-11-24T21:14:18.249Z,42.95
2022-11-24T21:16:45.797Z,41.50
2022-11-24T21:19:17.778Z,40.33
2022-11-24T21:21:51.009Z,38.75
2022-11-24T21:24:21.925Z,37.83
2022-11-24T21:26:52.924Z,37.13
2022-11-24T21:29:23.738Z,33.88
2022-11-24T21:31:52.168Z,33.22
2022-11-24T21:34:20.302Z,30.33
2022-11-24T21:36:48.349Z,30.20
2022-11-24T21:39:16.881Z,30.63
2022-11-24T21:41:51.526Z,29.50
2022-11-24T21:44:19.088Z,26.50
2022-11-24T21:46:55.694Z,27.42
2022-11-24T21:49:24.143Z,28.38
2022-11-24T21:51:55.830Z,28.92
2022-11-24T21:54:24.142Z,27.00
2022-11-24T21:56:54.143Z,25.42
2022-11-24T21:59:22.558Z,28.13
2022-11-24T22:02:13.402Z,28.38
2022-11-24T22:04:41.252Z,26.80
2022-11-24T22:07:09.909Z,27.23
2022-11-24T22:09:37.322Z,27.10
2022-11-24T22:12:05.026Z,30.63
2022-11-24T22:14:36.186Z,31.70
2022-11-24T22:17:10.701Z,33.80
2022-11-24T22:19:38.262Z,29.45
2022-11-24T22:22:05.843Z,32.10
2022-11-24T22:24:41.329Z,28.52
2022-11-24T22:27:12.896Z,30.00
2022-11-24T22:29:40.273Z,31.20
2022-11-24T22:32:10.237Z,30.17
2022-11-24T22:34:37.890Z,26.23
2022-11-24T22:37:06.030Z,23.65
2022-11-24T22:39:33.546Z,26.83
2022-11-24T22:42:01.214Z,29.25
2022-11-24T22:44:29.152Z,30.23
2022-11-24T22:46:57.131Z,27.25
2022-11-24T22:49:24.621Z,29.52
2022-11-24T22:51:52.211Z,29.02
2022-11-24T22:54:20.012Z,25.23
2022-11-24T22:56:47.661Z,25.58
2022-11-24T22:59:15.181Z,25.67
2022-11-24T23:01:42.781Z,24.58
2022-11-24T23:04:10.651Z,25.35
2022-11-24T23:06:38.568Z,24.80
2022-11-24T23:09:07.027Z,23.45
2022-11-24T23:11:41.907Z,26.23
2022-11-24T23:14:15.633Z,28.65
2022-11-24T23:16:44.617Z,26.38
2022-11-24T23:19:12.631Z,24.40
2022-11-24T23:21:40.486Z,25.58
2022-11-24T23:24:09.956Z,23.17
2022-11-24T23:26:41.038Z,24.65
2022-11-24T23:29:10.991Z,25.13
2022-11-24T23:31:40.321Z,25.67
2022-11-24T23:34:08.679Z,26.15
2022-11-24T23:36:36.516Z,25.25
2022-11-24T23:39:07.237Z,24.02
2022-11-24T23:41:35.485Z,23.55
2022-11-24T23:44:03.235Z,22.65
2022-11-24T23:46:31.275Z,23.42
2022-11-24T23:48:59.440Z,21.17
2022-11-24T23:51:30.427Z,22.33
2022-11-24T23:54:00.642Z,23.95
2022-11-24T23:56:33.146Z,20.65
2022-11-24T23:59:05.438Z,23.45
